createdAt,value
2019-04-05T00:00:55.946Z,9.47
2019-04-05T00:03:25.670Z,9.10
2019-04-05T00:05:55.491Z,9.43
2019-04-05T00:08:25.336Z,12.47
2019-04-05T00:10:55.252Z,13.57
2019-04-05T00:13:25.150Z,10.20
2019-04-05T00:15:54.931Z,11.97
2019-04-05T00:18:24.819Z,9.83
2019-04-05T00:20:54.522Z,10.43
2019-04-05T00:23:24.313Z,10.50
2019-04-05T00:25:54.294Z,11.00
2019-04-05T00:28:24.008Z,10.90
2019-04-05T00:30:53.888Z,9.93
2019-04-05T00:33:23.704Z,9.50
2019-04-05T00:35:53.722Z,9.53
2019-04-05T00:38:23.520Z,10.90
2019-04-05T00:40:53.411Z,9.83
2019-04-05T00:43:23.133Z,13.43
2019-04-05T00:45:53.262Z,10.30
2019-04-05T00:48:23.139Z,12.40
2019-04-05T00:50:53.127Z,11.20
2019-04-05T00:53:22.939Z,10.27
2019-04-05T00:55:52.770Z,12.13
2019-04-05T00:58:22.646Z,11.43
2019-04-05T01:00:52.428Z,11.97
2019-04-05T01:03:22.363Z,11.50
2019-04-05T01:05:52.460Z,10.77
2019-04-05T01:08:22.304Z,13.53
2019-04-05T01:10:52.238Z,11.70
2019-04-05T01:13:22.415Z,13.33
2019-04-05T01:15:52.262Z,10.83
2019-04-05T01:18:22.248Z,11.73
2019-04-05T01:20:54.451Z,11.40
2019-04-05T01:23:25.384Z,12.43
2019-04-05T01:25:58.174Z,12.80
2019-04-05T01:28:28.023Z,11.07
2019-04-05T01:30:58.138Z,12.37
2019-04-05T01:33:28.281Z,11.67
2019-04-05T01:35:58.128Z,13.87
2019-04-05T01:38:27.927Z,12.20
2019-04-05T01:40:59.666Z,12.27
2019-04-05T01:43:29.714Z,14.40
2019-04-05T01:46:00.728Z,14.43
2019-04-05T01:48:30.722Z,13.23
2019-04-05T01:51:00.603Z,13.57
2019-04-05T01:53:30.752Z,12.97
2019-04-05T01:56:00.517Z,12.87
2019-04-05T01:58:30.336Z,12.93
2019-04-05T02:01:00.234Z,14.30
2019-04-05T02:03:30.253Z,12.43
2019-04-05T02:06:00.272Z,13.57
2019-04-05T02:08:30.606Z,14.37
2019-04-05T02:11:00.500Z,12.63
2019-04-05T02:13:30.450Z,13.17
2019-04-05T02:16:06.217Z,15.83
2019-04-05T02:18:31.865Z,15.33
2019-04-05T02:21:01.768Z,15.90
2019-04-05T02:23:31.774Z,14.23
2019-04-05T02:26:01.793Z,18.53
2019-04-05T02:28:31.557Z,16.73
2019-04-05T02:31:02.404Z,15.60
2019-04-05T02:33:32.215Z,16.00
2019-04-05T02:36:02.144Z,15.67
2019-04-05T02:38:31.963Z,16.67
2019-04-05T02:41:03.921Z,16.40
2019-04-05T02:43:36.944Z,16.73
2019-04-05T02:46:22.815Z,15.13
2019-04-05T02:48:44.323Z,16.40
2019-04-05T02:51:18.540Z,17.57
2019-04-05T02:53:49.567Z,19.00
2019-04-05T02:56:20.760Z,18.13
2019-04-05T02:58:51.860Z,19.10
2019-04-05T03:01:22.821Z,17.77
2019-04-05T03:03:52.912Z,19.93
2019-04-05T03:06:22.914Z,20.60
2019-04-05T03:08:54.533Z,18.53
2019-04-05T03:11:28.760Z,16.67
2019-04-05T03:14:03.081Z,18.90
2019-04-05T03:16:41.417Z,16.53
2019-04-05T03:19:13.589Z,18.53
2019-04-05T03:21:47.873Z,20.00
2019-04-05T03:24:22.515Z,16.50
2019-04-05T03:26:56.785Z,17.93
2019-04-05T03:29:27.466Z,18.27
2019-04-05T03:31:57.956Z,19.83
2019-04-05T03:34:28.112Z,19.93
2019-04-05T03:36:57.984Z,19.17
2019-04-05T03:39:28.774Z,26.37
2019-04-05T03:41:59.015Z,19.00
2019-04-05T03:44:28.962Z,17.33
2019-04-05T03:46:59.040Z,17.63
2019-04-05T03:49:29.612Z,16.57
2019-04-05T03:51:59.620Z,21.20
2019-04-05T03:54:30.262Z,18.97
2019-04-05T03:57:01.987Z,18.97
2019-04-05T03:59:31.878Z,19.93
2019-04-05T04:02:02.383Z,17.23
2019-04-05T04:04:32.566Z,18.80
2019-04-05T04:07:02.399Z,19.53
2019-04-05T04:09:32.629Z,18.50
2019-04-05T04:12:03.371Z,19.27
2019-04-05T04:14:33.272Z,16.53
2019-04-05T04:17:12.277Z,18.40
2019-04-05T04:19:34.996Z,17.97
2019-04-05T04:22:20.973Z,21.70
2019-04-05T04:24:51.128Z,19.37
2019-04-05T04:27:21.724Z,19.83
2019-04-05T04:29:52.584Z,19.33
2019-04-05T04:32:22.581Z,21.37
2019-04-05T04:34:52.601Z,22.90
2019-04-05T04:37:23.023Z,19.10
2019-04-05T04:39:52.975Z,20.27
2019-04-05T04:42:23.855Z,19.27
2019-04-05T04:44:54.714Z,23.33
2019-04-05T04:47:27.352Z,22.87
2019-04-05T04:49:59.180Z,21.43
2019-04-05T04:52:31.497Z,18.77
2019-04-05T04:55:01.645Z,17.10
2019-04-05T04:57:32.147Z,21.87
2019-04-05T05:00:02.170Z,21.57
2019-04-05T05:02:32.167Z,18.50
2019-04-05T05:05:02.824Z,23.63
2019-04-05T05:07:33.479Z,21.40
2019-04-05T05:10:03.968Z,22.17
2019-04-05T05:12:33.969Z,20.50
2019-04-05T05:15:05.671Z,22.63
2019-04-05T05:17:38.596Z,19.57
2019-04-05T05:20:09.371Z,20.67
2019-04-05T05:22:39.678Z,22.57
2019-04-05T05:25:09.937Z,19.50
2019-04-05T05:27:39.840Z,22.17
2019-04-05T05:30:11.484Z,19.30
2019-04-05T05:32:41.594Z,20.40
2019-04-05T05:35:11.709Z,21.50
2019-04-05T05:37:41.688Z,19.40
2019-04-05T05:40:12.065Z,22.60
2019-04-05T05:42:41.937Z,20.47
2019-04-05T05:45:12.243Z,20.13
2019-04-05T05:47:51.794Z,19.63
2019-04-05T05:50:14.161Z,18.40
2019-04-05T05:52:44.487Z,20.00
2019-04-05T05:55:14.309Z,19.63
2019-04-05T05:57:44.142Z,19.90
2019-04-05T06:00:17.114Z,22.50
2019-04-05T06:02:48.371Z,20.50
2019-04-05T06:05:18.526Z,20.23
2019-04-05T06:07:48.251Z,20.67
2019-04-05T06:10:18.140Z,21.20
2019-04-05T06:12:47.829Z,19.63
2019-04-05T06:15:17.697Z,25.63
2019-04-05T06:17:47.433Z,19.17
2019-04-05T06:20:17.628Z,19.67
2019-04-05T06:22:47.672Z,24.83
2019-04-05T06:25:17.763Z,29.10
2019-04-05T06:27:47.503Z,23.67
2019-04-05T06:30:17.296Z,35.37
2019-04-05T06:32:47.094Z,49.70
2019-04-05T06:35:17.518Z,22.17
2019-04-05T06:37:47.282Z,22.97
2019-04-05T06:40:17.125Z,20.73
2019-04-05T06:42:46.819Z,23.33
2019-04-05T06:45:16.620Z,19.80
2019-04-05T06:47:46.393Z,21.73
2019-04-05T06:50:16.205Z,20.13
2019-04-05T06:52:46.005Z,18.07
2019-04-05T06:55:15.907Z,20.60
2019-04-05T06:57:45.622Z,22.33
2019-04-05T07:00:16.336Z,18.10
2019-04-05T07:02:46.088Z,19.53
2019-04-05T07:05:15.871Z,23.37
2019-04-05T07:07:45.549Z,19.07
2019-04-05T07:10:15.481Z,18.20
2019-04-05T07:12:45.228Z,19.77
2019-04-05T07:15:15.177Z,20.77
2019-04-05T07:17:44.931Z,19.00
2019-04-05T07:20:14.726Z,20.67
2019-04-05T07:22:44.364Z,12.57
2019-04-05T07:25:14.221Z,13.77
2019-04-05T07:27:44.056Z,15.40
2019-04-05T07:30:15.559Z,15.23
2019-04-05T07:32:45.252Z,11.87
2019-04-05T07:35:15.104Z,13.27
2019-04-05T07:37:45.084Z,9.63
2019-04-05T07:40:15.579Z,14.00
2019-04-05T07:42:45.388Z,13.70
2019-04-05T07:45:15.719Z,13.73
2019-04-05T07:47:45.414Z,16.93
2019-04-05T07:50:15.828Z,15.70
2019-04-05T07:52:45.529Z,19.20
2019-04-05T07:55:15.738Z,19.63
2019-04-05T07:57:45.741Z,16.67
2019-04-05T08:00:28.643Z,15.40
2019-04-05T08:02:58.284Z,15.40
2019-04-05T08:05:28.182Z,15.93
2019-04-05T08:07:58.563Z,19.50
2019-04-05T08:10:28.969Z,18.20
2019-04-05T08:12:59.897Z,18.37
2019-04-05T08:15:30.698Z,18.73
2019-04-05T08:18:00.562Z,16.93
2019-04-05T08:20:30.302Z,18.97
2019-04-05T08:23:00.017Z,19.17
2019-04-05T08:25:29.793Z,18.20
2019-04-05T08:27:59.612Z,21.23
2019-04-05T08:30:29.354Z,21.57
2019-04-05T08:32:59.059Z,21.67
2019-04-05T08:35:28.727Z,20.33
2019-04-05T08:37:58.548Z,19.50
2019-04-05T08:40:28.283Z,20.87
2019-04-05T08:42:58.160Z,19.73
2019-04-05T08:45:28.133Z,20.90
2019-04-05T08:47:57.836Z,24.37
2019-04-05T08:50:27.611Z,22.10
2019-04-05T08:52:57.520Z,21.87
2019-04-05T08:55:27.233Z,21.07
2019-04-05T08:57:56.992Z,21.87
2019-04-05T09:00:26.976Z,20.53
2019-04-05T09:02:56.780Z,21.67
2019-04-05T09:05:26.469Z,32.73
2019-04-05T09:07:56.199Z,21.73
2019-04-05T09:10:25.913Z,28.37
2019-04-05T09:12:55.613Z,24.80
2019-04-05T09:15:25.636Z,24.23
2019-04-05T09:17:55.469Z,25.30
2019-04-05T09:20:25.245Z,25.13
2019-04-05T09:22:55.097Z,21.73
2019-04-05T09:25:24.836Z,24.33
2019-04-05T09:27:54.809Z,24.10
2019-04-05T09:30:24.653Z,23.23
2019-04-05T09:32:54.348Z,25.47
2019-04-05T09:35:24.041Z,18.13
2019-04-05T09:37:54.085Z,16.53
2019-04-05T09:40:23.865Z,14.80
2019-04-05T09:42:53.566Z,17.17
2019-04-05T09:45:23.292Z,14.10
2019-04-05T09:47:53.171Z,15.57
2019-04-05T09:50:22.890Z,17.67
2019-04-05T09:52:52.702Z,19.23
2019-04-05T09:55:22.376Z,20.50
2019-04-05T09:57:52.068Z,16.23
2019-04-05T10:00:23.536Z,19.37
2019-04-05T10:02:53.423Z,18.90
2019-04-05T10:05:23.243Z,20.13
2019-04-05T10:07:55.111Z,20.70
2019-04-05T10:10:24.865Z,24.03
2019-04-05T10:12:54.824Z,20.20
2019-04-05T10:15:24.742Z,22.97
2019-04-05T10:17:54.543Z,18.33
2019-04-05T10:20:24.494Z,19.87
2019-04-05T10:22:54.412Z,17.87
2019-04-05T10:25:24.401Z,21.27
2019-04-05T10:27:54.210Z,24.97
2019-04-05T10:30:24.558Z,22.37
2019-04-05T10:32:54.504Z,20.80
2019-04-05T10:35:24.377Z,20.00
2019-04-05T10:37:54.303Z,20.13
2019-04-05T10:40:24.292Z,22.17
2019-04-05T10:42:54.218Z,21.90
2019-04-05T10:45:25.200Z,20.50
2019-04-05T10:47:55.097Z,16.60
2019-04-05T10:50:25.069Z,19.57
2019-04-05T10:52:55.043Z,17.63
2019-04-05T10:55:24.853Z,18.70
2019-04-05T10:57:54.659Z,16.77
2019-04-05T11:00:25.464Z,17.50
2019-04-05T11:02:55.250Z,16.17
2019-04-05T11:05:26.071Z,15.57
2019-04-05T11:07:55.750Z,16.07
2019-04-05T11:10:25.408Z,16.60
2019-04-05T11:12:55.285Z,16.10
2019-04-05T11:15:24.984Z,16.03
2019-04-05T11:17:54.950Z,15.13
2019-04-05T11:20:24.800Z,14.50
2019-04-05T11:22:54.664Z,15.50
2019-04-05T11:25:24.814Z,16.57
2019-04-05T11:27:54.551Z,14.87
2019-04-05T11:30:42.575Z,17.73
2019-04-05T11:33:12.555Z,14.33
2019-04-05T11:35:42.962Z,14.27
2019-04-05T11:38:14.131Z,15.40
2019-04-05T11:40:45.306Z,13.27
2019-04-05T11:43:17.069Z,14.23
2019-04-05T11:45:48.590Z,11.43
2019-04-05T11:48:18.618Z,11.80
2019-04-05T11:50:48.303Z,12.53
2019-04-05T11:53:18.061Z,14.67
2019-04-05T11:55:48.138Z,12.37
2019-04-05T11:58:17.793Z,11.43
2019-04-05T12:00:51.910Z,11.80
2019-04-05T12:03:24.829Z,11.20
2019-04-05T12:05:54.563Z,15.07
2019-04-05T12:08:24.381Z,10.97
2019-04-05T12:10:54.426Z,11.40
2019-04-05T12:13:24.176Z,11.53
2019-04-05T12:15:53.999Z,13.00
2019-04-05T12:18:23.720Z,11.53
2019-04-05T12:21:00.062Z,11.03
2019-04-05T12:23:24.857Z,13.83
2019-04-05T12:25:54.889Z,12.30
2019-04-05T12:28:24.617Z,12.20
2019-04-05T12:30:54.569Z,14.63
2019-04-05T12:33:26.249Z,14.73
2019-04-05T12:35:56.661Z,13.90
2019-04-05T12:38:33.905Z,14.70
2019-04-05T12:41:05.223Z,12.93
2019-04-05T12:43:36.818Z,13.50
2019-04-05T12:46:07.350Z,14.27
2019-04-05T12:48:37.015Z,13.97
2019-04-05T12:51:06.926Z,12.10
2019-04-05T12:53:36.656Z,13.60
2019-04-05T12:56:06.906Z,15.63
2019-04-05T12:58:36.631Z,13.07
2019-04-05T13:01:08.386Z,12.17
2019-04-05T13:03:38.032Z,13.43
2019-04-05T13:06:07.734Z,13.00
2019-04-05T13:08:37.457Z,13.60
2019-04-05T13:11:07.377Z,13.63
2019-04-05T13:13:37.139Z,13.10
2019-04-05T13:16:09.838Z,12.77
2019-04-05T13:18:38.755Z,12.67
2019-04-05T13:21:15.098Z,14.17
2019-04-05T13:23:40.429Z,14.87
2019-04-05T13:26:12.346Z,13.50
2019-04-05T13:28:41.893Z,12.93
2019-04-05T13:31:11.686Z,13.57
2019-04-05T13:33:41.621Z,15.33
2019-04-05T13:36:11.514Z,14.50
2019-04-05T13:38:53.998Z,16.27
2019-04-05T13:41:12.942Z,15.43
2019-04-05T13:43:42.628Z,15.50
2019-04-05T13:46:21.814Z,14.53
2019-04-05T13:48:43.780Z,14.43
2019-04-05T13:51:13.489Z,13.70
2019-04-05T13:53:43.205Z,17.37
2019-04-05T13:56:12.995Z,17.17
2019-04-05T13:58:46.004Z,15.80
2019-04-05T14:01:14.222Z,16.30
2019-04-05T14:03:44.009Z,15.70
2019-04-05T14:06:13.663Z,15.83
2019-04-05T14:08:43.344Z,18.30
2019-04-05T14:11:13.241Z,16.53
2019-04-05T14:13:43.164Z,18.60
2019-04-05T14:16:13.137Z,17.33
2019-04-05T14:18:49.444Z,17.07
2019-04-05T14:21:14.534Z,17.60
2019-04-05T14:23:44.299Z,17.37
2019-04-05T14:26:14.039Z,19.57
2019-04-05T14:28:43.722Z,20.53
2019-04-05T14:31:13.402Z,19.20
2019-04-05T14:33:43.172Z,21.47
2019-04-05T14:36:13.029Z,20.00
2019-04-05T14:38:42.708Z,21.07
2019-04-05T14:41:12.549Z,20.30
2019-04-05T14:43:44.535Z,23.53
2019-04-05T14:46:14.006Z,21.73
2019-04-05T14:48:43.790Z,21.90
2019-04-05T14:51:13.544Z,23.43
2019-04-05T14:53:43.352Z,22.90
2019-04-05T14:56:13.128Z,20.90
2019-04-05T14:58:42.824Z,18.87
2019-04-05T15:01:12.683Z,16.87
2019-04-05T15:03:42.365Z,17.10
2019-04-05T15:06:12.200Z,23.57
2019-04-05T15:08:42.100Z,23.53
2019-04-05T15:11:11.880Z,21.10
2019-04-05T15:13:41.618Z,21.40
2019-04-05T15:16:11.645Z,19.13
2019-04-05T15:18:43.045Z,21.37
2019-04-05T15:21:12.857Z,18.70
2019-04-05T15:23:45.435Z,21.70
2019-04-05T15:26:14.134Z,19.23
2019-04-05T15:28:43.870Z,19.10
2019-04-05T15:31:13.691Z,18.83
2019-04-05T15:33:43.488Z,17.37
2019-04-05T15:36:13.145Z,18.43
2019-04-05T15:38:42.907Z,16.37
2019-04-05T15:41:12.587Z,18.03
2019-04-05T15:43:42.493Z,15.73
2019-04-05T15:46:12.433Z,18.17
2019-04-05T15:48:42.189Z,19.87
2019-04-05T15:51:12.015Z,19.30
2019-04-05T15:53:41.851Z,19.50
2019-04-05T15:56:11.590Z,20.43
2019-04-05T15:58:41.321Z,20.77
2019-04-05T16:01:11.311Z,26.10
2019-04-05T16:03:41.270Z,25.23
2019-04-05T16:06:11.112Z,25.93
2019-04-05T16:08:40.891Z,25.80
2019-04-05T16:11:10.816Z,26.17
2019-04-05T16:13:40.663Z,27.60
2019-04-05T16:16:10.911Z,24.77
2019-04-05T16:18:40.576Z,28.23
2019-04-05T16:21:10.449Z,24.37
2019-04-05T16:23:40.163Z,27.60
2019-04-05T16:26:09.922Z,24.33
2019-04-05T16:28:41.091Z,26.03
2019-04-05T16:31:11.009Z,25.57
2019-04-05T16:33:40.712Z,28.57
2019-04-05T16:36:10.381Z,25.70
2019-04-05T16:38:40.220Z,26.63
2019-04-05T16:41:10.036Z,22.97
2019-04-05T16:43:39.701Z,24.13
2019-04-05T16:46:09.335Z,26.00
2019-04-05T16:48:39.116Z,27.43
2019-04-05T16:51:08.918Z,25.80
2019-04-05T16:53:40.334Z,23.13
2019-04-05T16:56:10.394Z,25.67
2019-04-05T16:58:40.239Z,20.67
2019-04-05T17:01:10.297Z,23.97
2019-04-05T17:03:40.033Z,22.30
2019-04-05T17:06:09.728Z,21.13
2019-04-05T17:08:39.544Z,23.57
2019-04-05T17:11:09.286Z,22.43
2019-04-05T17:13:38.991Z,26.90
2019-04-05T17:16:08.701Z,19.07
2019-04-05T17:18:38.448Z,23.77
2019-04-05T17:21:08.118Z,21.13
2019-04-05T17:23:37.847Z,19.67
2019-04-05T17:26:07.591Z,23.00
2019-04-05T17:28:37.246Z,25.30
2019-04-05T17:31:07.080Z,22.93
2019-04-05T17:33:36.824Z,24.23
2019-04-05T17:36:06.555Z,23.57
2019-04-05T17:38:36.445Z,22.53
2019-04-05T17:41:06.600Z,21.53
2019-04-05T17:43:36.405Z,21.63
2019-04-05T17:46:06.329Z,21.97
2019-04-05T17:48:36.079Z,20.97
2019-04-05T17:51:05.881Z,26.77
2019-04-05T17:53:35.643Z,24.43
2019-04-05T17:56:05.653Z,23.20
2019-04-05T17:58:37.298Z,20.93
2019-04-05T18:01:07.362Z,22.23
2019-04-05T18:03:37.065Z,26.03
2019-04-05T18:06:07.047Z,23.80
2019-04-05T18:08:36.714Z,20.63
2019-04-05T18:11:06.613Z,25.50
2019-04-05T18:13:36.810Z,26.00
2019-04-05T18:16:06.609Z,28.03
2019-04-05T18:18:36.367Z,30.67
2019-04-05T18:21:07.539Z,32.73
2019-04-05T18:23:37.200Z,28.27
2019-04-05T18:26:07.012Z,30.47
2019-04-05T18:28:37.887Z,31.90
2019-04-05T18:31:07.529Z,33.10
2019-04-05T18:33:38.235Z,29.00
2019-04-05T18:36:07.892Z,38.93
2019-04-05T18:38:37.706Z,35.37
2019-04-05T18:41:07.620Z,32.83
2019-04-05T18:43:37.275Z,31.13
2019-04-05T18:46:07.104Z,39.83
2019-04-05T18:48:36.804Z,37.17
2019-04-05T18:51:06.540Z,36.70
2019-04-05T18:53:38.013Z,41.27
2019-04-05T18:56:07.876Z,40.70
2019-04-05T18:58:37.586Z,42.40
2019-04-05T19:01:07.433Z,43.30
2019-04-05T19:03:37.168Z,42.23
2019-04-05T19:06:07.320Z,45.63
2019-04-05T19:08:39.868Z,42.80
2019-04-05T19:11:08.582Z,41.70
2019-04-05T19:13:38.393Z,45.73
2019-04-05T19:16:08.165Z,42.20
2019-04-05T19:18:38.105Z,42.37
2019-04-05T19:21:08.001Z,42.90
2019-04-05T19:23:49.879Z,41.07
2019-04-05T19:26:09.178Z,37.87
2019-04-05T19:28:38.915Z,35.23
2019-04-05T19:48:48.670Z,39.17
2019-04-05T19:51:18.463Z,35.67
2019-04-05T19:53:49.466Z,38.20
2019-04-05T19:56:19.172Z,38.03
2019-04-05T19:58:49.147Z,38.03
2019-04-05T20:01:18.877Z,34.80
2019-04-05T20:03:48.655Z,37.50
2019-04-05T20:06:18.314Z,37.07
2019-04-05T20:08:48.009Z,38.87
2019-04-05T20:11:18.087Z,40.73
2019-04-05T20:13:47.834Z,42.03
2019-04-05T20:16:17.597Z,38.20
2019-04-05T20:18:47.239Z,40.43
2019-04-05T20:21:17.057Z,38.00
2019-04-05T20:23:47.805Z,39.63
2019-04-05T20:26:17.774Z,38.03
2019-04-05T20:28:47.463Z,38.43
2019-04-05T20:31:17.239Z,41.33
2019-04-05T20:33:46.960Z,41.13
2019-04-05T20:36:16.644Z,40.03
2019-04-05T20:38:46.369Z,41.83
2019-04-05T20:41:16.164Z,41.67
2019-04-05T20:43:45.951Z,40.70
2019-04-05T20:46:15.972Z,40.03
2019-04-05T20:48:45.625Z,43.10
2019-04-05T20:51:15.323Z,44.23
2019-04-05T20:53:44.993Z,40.00
2019-04-05T20:56:14.847Z,44.10
2019-04-05T20:58:44.525Z,47.83
2019-04-05T21:01:14.202Z,44.40
2019-04-05T21:03:43.991Z,41.73
2019-04-05T21:06:13.868Z,47.03
2019-04-05T21:08:43.531Z,44.47
2019-04-05T21:11:13.285Z,43.13
2019-04-05T21:13:43.097Z,45.43
2019-04-05T21:16:12.832Z,44.50
2019-04-05T21:18:42.501Z,46.00
2019-04-05T21:21:12.323Z,46.93
2019-04-05T21:23:42.216Z,42.47
2019-04-05T21:26:11.949Z,41.60
2019-04-05T21:28:41.781Z,41.97
2019-04-05T21:31:11.513Z,42.80
2019-04-05T21:33:41.252Z,43.43
2019-04-05T21:36:10.961Z,43.33
2019-04-05T21:38:40.681Z,40.23
2019-04-05T21:41:10.393Z,40.47
2019-04-05T21:43:40.087Z,48.60
2019-04-05T21:46:09.783Z,41.23
2019-04-05T21:48:39.473Z,45.30
2019-04-05T21:51:09.208Z,43.77
2019-04-05T21:53:38.982Z,45.03
2019-04-05T21:56:09.048Z,46.43
2019-04-05T21:58:38.756Z,47.83
2019-04-05T22:01:09.948Z,42.57
2019-04-05T22:03:39.699Z,41.90
2019-04-05T22:06:09.563Z,46.37
2019-04-05T22:08:39.390Z,42.40
2019-04-05T22:11:09.318Z,49.77
2019-04-05T22:13:39.319Z,43.93
2019-04-05T22:16:09.213Z,46.73
2019-04-05T22:18:38.928Z,46.93
2019-04-05T22:21:08.815Z,48.17
2019-04-05T22:23:38.835Z,44.60
2019-04-05T22:26:09.437Z,45.73
2019-04-05T22:28:39.264Z,49.43
2019-04-05T22:31:09.199Z,45.60
2019-04-05T22:33:38.890Z,51.37
2019-04-05T22:36:08.711Z,46.60
2019-04-05T22:38:38.530Z,48.07
2019-04-05T22:41:08.341Z,48.07
2019-04-05T22:43:38.019Z,47.07
2019-04-05T22:46:07.897Z,49.20
2019-04-05T22:48:37.653Z,46.77
2019-04-05T22:51:07.376Z,50.60
2019-04-05T22:53:37.080Z,52.73
2019-04-05T22:56:06.982Z,49.70
2019-04-05T22:58:36.817Z,47.87
2019-04-05T23:01:06.582Z,55.63
2019-04-05T23:03:36.355Z,46.90
2019-04-05T23:06:06.416Z,51.87
2019-04-05T23:08:36.507Z,48.70
2019-04-05T23:11:06.307Z,50.10
2019-04-05T23:13:36.445Z,49.03
2019-04-05T23:16:06.561Z,45.50
2019-04-05T23:18:36.474Z,49.70
2019-04-05T23:21:06.365Z,49.70
2019-04-05T23:23:36.184Z,48.00
2019-04-05T23:26:05.904Z,47.07
2019-04-05T23:28:35.879Z,50.10
2019-04-05T23:31:05.838Z,53.73
2019-04-05T23:33:35.572Z,51.10
2019-04-05T23:36:05.625Z,48.03
2019-04-05T23:38:35.363Z,55.33
2019-04-05T23:41:05.366Z,52.20
2019-04-05T23:43:35.153Z,56.10
2019-04-05T23:46:04.916Z,56.33
2019-04-05T23:48:34.728Z,58.47
2019-04-05T23:51:04.508Z,56.83
2019-04-05T23:53:34.349Z,54.53
2019-04-05T23:56:04.148Z,62.87
2019-04-05T23:58:33.862Z,52.13
